createdAt,value
2022-08-30T00:00:36.469Z,155616.50
2022-08-30T00:03:09.068Z,155580.03
2022-08-30T00:05:43.372Z,155591.75
2022-08-30T00:08:14.226Z,155594.38
2022-08-30T00:10:45.104Z,155608.72
2022-08-30T00:13:16.606Z,155599.59
2022-08-30T00:15:47.742Z,155624.34
2022-08-30T00:18:18.870Z,155610.00
2022-08-30T00:20:53.178Z,155611.28
2022-08-30T00:23:23.934Z,155593.09
2022-08-30T00:25:54.110Z,155620.44
2022-08-30T00:28:25.136Z,155626.94
2022-08-30T00:30:55.803Z,155613.94
2022-08-30T00:33:26.641Z,155632.19
2022-08-30T00:35:59.571Z,155606.09
2022-08-30T00:38:30.074Z,155606.09
2022-08-30T00:41:00.498Z,155580.03
2022-08-30T00:43:34.253Z,155600.88
2022-08-30T00:46:08.760Z,155589.16
2022-08-30T00:48:42.767Z,155570.91
2022-08-30T00:51:17.730Z,155553.97
2022-08-30T00:53:52.431Z,155580.03
2022-08-30T00:56:22.768Z,155596.94
2022-08-30T00:58:57.270Z,155553.97
2022-08-30T01:01:28.372Z,155538.28
2022-08-30T01:04:03.272Z,155538.28
2022-08-30T01:06:37.208Z,155525.25
2022-08-30T01:09:08.108Z,155521.31
2022-08-30T01:11:42.369Z,155523.94
2022-08-30T01:14:13.948Z,155513.53
2022-08-30T01:16:47.082Z,155517.41
2022-08-30T01:19:31.336Z,155509.59
2022-08-30T01:22:08.685Z,155506.97
2022-08-30T01:24:41.857Z,155535.66
2022-08-30T01:27:12.641Z,155526.53
2022-08-30T01:29:45.204Z,155505.69
2022-08-30T01:32:21.240Z,155487.44
2022-08-30T01:34:51.765Z,155491.34
2022-08-30T01:37:24.997Z,155509.59
2022-08-30T01:39:58.194Z,155473.13
2022-08-30T01:42:28.960Z,155458.81
2022-08-30T01:44:59.110Z,155461.38
2022-08-30T01:47:29.677Z,155449.66
2022-08-30T01:50:00.132Z,155436.63
2022-08-30T01:52:31.253Z,155426.19
2022-08-30T01:55:04.321Z,155452.25
2022-08-30T01:57:34.490Z,155434.03
2022-08-30T02:00:04.922Z,155427.50
2022-08-30T02:02:44.435Z,155413.22
2022-08-30T02:05:16.186Z,155381.91
2022-08-30T02:07:46.755Z,155410.56
2022-08-30T02:10:20.899Z,155413.22
2022-08-30T02:12:52.742Z,155424.91
2022-08-30T02:15:23.092Z,155404.06
2022-08-30T02:17:54.139Z,155388.44
2022-08-30T02:20:24.653Z,155402.75
2022-08-30T02:22:56.728Z,155380.63
2022-08-30T02:25:32.423Z,155361.06
2022-08-30T02:28:02.598Z,155353.28
2022-08-30T02:30:33.098Z,155374.13
2022-08-30T02:33:04.330Z,155340.22
2022-08-30T02:35:34.834Z,155349.38
2022-08-30T02:38:05.046Z,155335.03
2022-08-30T02:40:39.181Z,155357.16
2022-08-30T02:43:09.539Z,155325.84
2022-08-30T02:45:40.009Z,155312.81
2022-08-30T02:48:10.214Z,155305.00
2022-08-30T02:50:43.544Z,155305.00
2022-08-30T02:53:16.397Z,155293.25
2022-08-30T02:55:50.198Z,155277.66
2022-08-30T02:58:20.588Z,155276.34
2022-08-30T03:00:50.815Z,155289.41
2022-08-30T03:03:22.881Z,155290.69
2022-08-30T03:05:53.329Z,155285.47
2022-08-30T03:08:23.517Z,155276.34
2022-08-30T03:10:57.087Z,155282.84
2022-08-30T03:13:27.811Z,155275.06
2022-08-30T03:15:58.342Z,155267.22
2022-08-30T03:18:29.736Z,155256.81
2022-08-30T03:21:00.046Z,155280.28
2022-08-30T03:23:30.348Z,155256.81
2022-08-30T03:26:03.125Z,155256.81
2022-08-30T03:28:36.482Z,155243.81
2022-08-30T03:31:07.269Z,155246.41
2022-08-30T03:33:37.897Z,155230.78
2022-08-30T03:36:08.536Z,155237.28
2022-08-30T03:38:39.015Z,155236.00
2022-08-30T03:41:11.909Z,155232.06
2022-08-30T03:43:43.371Z,155220.38
2022-08-30T03:46:14.979Z,155221.66
2022-08-30T03:48:45.672Z,155212.53
2022-08-30T03:51:16.037Z,155204.75
2022-08-30T03:53:46.235Z,155194.34
2022-08-30T03:56:20.088Z,155198.19
2022-08-30T03:58:50.498Z,155200.84
2022-08-30T04:01:21.066Z,155181.28
2022-08-30T04:03:51.258Z,155176.09
2022-08-30T04:06:21.473Z,155161.75
2022-08-30T04:08:51.801Z,155176.09
2022-08-30T04:11:24.673Z,155174.78
2022-08-30T04:13:56.355Z,155176.09
2022-08-30T04:16:27.541Z,155163.03
2022-08-30T04:19:00.322Z,155172.16
2022-08-30T04:21:30.439Z,155170.88
2022-08-30T04:24:00.781Z,155157.84
2022-08-30T04:26:33.649Z,155160.47
2022-08-30T04:29:03.806Z,155165.69
2022-08-30T04:31:34.375Z,155152.63
2022-08-30T04:34:04.912Z,155157.84
2022-08-30T04:36:35.270Z,155176.09
2022-08-30T04:39:05.460Z,155191.72
2022-08-30T04:41:40.889Z,155187.78
2022-08-30T04:44:14.127Z,155198.19
2022-08-30T04:46:49.333Z,155174.78
2022-08-30T04:49:19.460Z,155181.28
2022-08-30T04:51:49.781Z,155178.66
2022-08-30T04:54:20.039Z,155187.78
2022-08-30T04:56:52.992Z,155180.00
2022-08-30T04:59:23.170Z,155178.66
2022-08-30T05:01:53.268Z,155186.50
2022-08-30T05:04:23.602Z,155193.00
2022-08-30T05:06:54.093Z,155215.16
2022-08-30T05:09:24.608Z,155217.72
2022-08-30T05:11:57.665Z,155225.56
2022-08-30T05:14:27.786Z,155220.38
2022-08-30T05:16:57.891Z,155260.72
2022-08-30T05:19:28.059Z,155258.09
2022-08-30T05:21:58.193Z,155273.78
2022-08-30T05:24:29.441Z,155265.94
2022-08-30T05:27:02.611Z,155277.66
2022-08-30T05:29:34.111Z,155276.34
2022-08-30T05:32:04.280Z,155280.28
2022-08-30T05:34:34.874Z,155285.47
2022-08-30T05:37:05.650Z,155297.19
2022-08-30T05:39:51.324Z,155314.16
2022-08-30T05:42:24.695Z,155321.94
2022-08-30T05:44:55.614Z,155354.56
2022-08-30T05:47:25.891Z,155362.34
2022-08-30T05:49:56.061Z,155375.41
2022-08-30T05:52:26.493Z,155423.63
2022-08-30T05:54:59.323Z,155405.38
2022-08-30T05:57:34.235Z,155440.53
2022-08-30T06:00:09.151Z,155452.25
2022-08-30T06:02:42.329Z,155475.72
2022-08-30T06:05:14.710Z,155460.09
2022-08-30T06:07:45.332Z,155512.19
2022-08-30T06:10:15.542Z,155531.75
2022-08-30T06:12:50.252Z,155546.09
2022-08-30T06:15:20.858Z,155540.88
2022-08-30T06:17:51.312Z,155544.78
2022-08-30T06:20:21.656Z,155580.03
2022-08-30T06:22:51.773Z,155557.91
2022-08-30T06:25:22.331Z,155629.56
2022-08-30T06:27:56.581Z,155651.69
2022-08-30T06:30:27.115Z,155663.47
2022-08-30T06:32:57.291Z,155671.25
2022-08-30T06:35:28.772Z,155685.59
2022-08-30T06:37:59.166Z,155698.66
2022-08-30T06:40:29.719Z,155722.13
2022-08-30T06:43:02.789Z,155726.00
2022-08-30T06:45:37.333Z,155778.25
2022-08-30T06:48:07.922Z,155813.44
2022-08-30T06:50:38.099Z,155765.19
2022-08-30T06:53:08.338Z,155780.81
2022-08-30T06:55:39.830Z,155783.47
2022-08-30T06:58:13.294Z,155819.97
2022-08-30T07:00:43.768Z,155833.00
2022-08-30T07:03:14.137Z,155812.16
2022-08-30T07:05:44.517Z,155870.81
2022-08-30T07:08:14.835Z,155904.72
2022-08-30T07:10:45.531Z,155906.03
2022-08-30T07:13:20.030Z,155889.09
2022-08-30T07:15:51.705Z,155951.72
2022-08-30T07:18:34.291Z,155964.72
2022-08-30T07:21:11.343Z,155902.16
2022-08-30T07:23:41.550Z,155967.38
2022-08-30T07:26:13.848Z,155936.06
2022-08-30T07:28:48.853Z,155993.50
2022-08-30T07:31:26.385Z,156018.28
2022-08-30T07:33:57.109Z,156075.72
2022-08-30T07:36:27.516Z,156103.09
2022-08-30T07:38:57.933Z,156143.53
2022-08-30T07:41:30.461Z,156172.31
2022-08-30T07:44:03.392Z,156233.66
2022-08-30T07:46:33.849Z,156246.72
2022-08-30T07:49:04.589Z,156334.16
2022-08-30T07:51:35.574Z,156419.09
2022-08-30T07:54:07.176Z,156485.72
2022-08-30T07:56:37.981Z,156451.75
2022-08-30T07:59:10.775Z,156526.22
2022-08-30T08:01:41.094Z,156613.75
2022-08-30T08:04:12.393Z,156565.47
2022-08-30T08:06:45.501Z,156681.72
2022-08-30T08:09:18.528Z,156711.78
2022-08-30T08:11:48.927Z,156650.38
2022-08-30T08:14:23.554Z,156660.81
2022-08-30T08:16:53.961Z,156703.91
2022-08-30T08:19:24.165Z,156632.06
2022-08-30T08:22:15.641Z,156671.28
2022-08-30T08:24:48.062Z,156602.03
2022-08-30T08:27:18.732Z,156658.19
2022-08-30T08:29:51.862Z,156681.72
2022-08-30T08:32:22.310Z,156642.50
2022-08-30T08:34:52.670Z,156726.16
2022-08-30T08:37:27.882Z,156739.25
2022-08-30T08:39:58.339Z,156753.63
2022-08-30T08:42:40.023Z,156753.63
2022-08-30T08:45:16.727Z,156774.56
2022-08-30T08:48:04.740Z,156821.59
2022-08-30T08:50:36.048Z,156860.81
2022-08-30T08:53:51.726Z,156896.13
2022-08-30T08:56:24.787Z,156888.25
2022-08-30T08:58:57.631Z,156935.38
2022-08-30T09:01:33.714Z,156886.97
2022-08-30T09:04:09.827Z,157058.25
2022-08-30T09:06:52.662Z,157040.00
2022-08-30T09:09:30.375Z,157079.28
2022-08-30T09:12:00.952Z,157073.94
2022-08-30T09:14:36.370Z,157081.88
2022-08-30T09:17:11.612Z,157142.03
2022-08-30T09:19:45.746Z,157160.34
2022-08-30T09:22:26.163Z,157144.66
2022-08-30T09:25:02.800Z,157194.38
2022-08-30T09:27:38.477Z,157168.19
2022-08-30T09:30:14.839Z,157194.38
2022-08-30T09:32:55.300Z,157196.97
2022-08-30T09:35:28.309Z,157268.94
2022-08-30T09:37:59.533Z,157287.28
2022-08-30T09:40:34.734Z,157274.22
2022-08-30T09:43:13.478Z,157152.47
2022-08-30T09:45:47.493Z,157055.69
2022-08-30T09:48:45.090Z,157076.63
2022-08-30T09:51:47.112Z,157169.53
2022-08-30T09:54:25.504Z,157172.09
2022-08-30T09:57:11.609Z,157268.94
2022-08-30T09:59:50.634Z,157159.00
2022-08-30T10:02:35.673Z,157152.47
2022-08-30T10:05:16.378Z,157149.91
2022-08-30T10:07:58.713Z,157181.28
2022-08-30T10:10:35.798Z,157230.97
2022-08-30T10:13:28.544Z,157323.91
2022-08-30T10:16:05.323Z,157288.56
2022-08-30T10:18:42.235Z,157282.03
2022-08-30T10:21:25.656Z,157335.69
2022-08-30T10:24:01.490Z,157428.63
2022-08-30T10:26:34.775Z,157246.72
2022-08-30T10:29:09.920Z,157385.44
2022-08-30T10:31:45.738Z,157377.56
2022-08-30T10:34:20.935Z,157395.91
2022-08-30T10:36:59.979Z,157488.84
2022-08-30T10:39:34.737Z,157352.69
2022-08-30T10:42:10.399Z,157457.44
2022-08-30T10:44:44.798Z,157558.22
2022-08-30T10:47:27.523Z,157488.84
2022-08-30T10:50:04.513Z,157496.72
2022-08-30T10:52:45.908Z,157613.25
2022-08-30T10:55:18.970Z,157642.06
2022-08-30T10:57:49.293Z,157554.31
2022-08-30T11:00:27.748Z,157580.56
2022-08-30T11:03:31.473Z,157589.72
2022-08-30T11:06:16.042Z,157552.97
2022-08-30T11:09:23.296Z,157559.56
2022-08-30T11:12:22.672Z,157632.91
2022-08-30T11:14:55.531Z,157621.13
2022-08-30T11:17:34.018Z,157663.00
2022-08-30T11:20:07.286Z,157660.41
2022-08-30T11:22:40.136Z,157640.78
2022-08-30T11:25:18.341Z,157723.28
2022-08-30T11:27:53.971Z,157752.09
2022-08-30T11:30:55.243Z,157787.47
2022-08-30T11:33:46.215Z,157821.53
2022-08-30T11:36:51.746Z,157797.94
2022-08-30T11:39:51.565Z,157792.69
2022-08-30T11:42:36.769Z,157716.69
2022-08-30T11:45:37.067Z,157703.59
2022-08-30T11:48:10.219Z,157707.53
2022-08-30T11:50:55.393Z,157728.53
2022-08-30T11:53:34.848Z,157815.00
2022-08-30T11:56:13.419Z,157763.88
2022-08-30T11:58:57.934Z,157834.66
2022-08-30T12:01:49.892Z,157659.06
2022-08-30T12:04:31.742Z,157632.91
2022-08-30T12:07:05.089Z,157687.88
2022-08-30T12:10:07.717Z,157655.19
2022-08-30T12:12:55.797Z,157752.09
2022-08-30T12:15:58.043Z,157690.53
2022-08-30T12:18:44.448Z,157640.78
2022-08-30T12:21:31.314Z,157825.47
2022-08-30T12:24:21.623Z,157774.34
2022-08-30T12:26:53.750Z,157761.28
2022-08-30T12:29:27.616Z,157626.34
2022-08-30T12:32:03.458Z,157681.34
2022-08-30T12:34:40.528Z,157794.00
2022-08-30T12:37:14.179Z,157746.88
2022-08-30T12:39:53.762Z,157770.47
2022-08-30T12:42:27.159Z,157754.75
2022-08-30T12:45:00.772Z,157748.16
2022-08-30T12:47:40.725Z,157856.88
2022-08-30T12:50:15.168Z,157801.88
2022-08-30T12:52:48.098Z,157818.88
2022-08-30T12:55:21.320Z,157752.09
2022-08-30T12:58:02.841Z,157697.06
2022-08-30T13:00:35.935Z,157746.88
2022-08-30T13:03:32.459Z,157749.50
2022-08-30T13:06:02.962Z,157797.94
2022-08-30T13:08:37.617Z,157765.22
2022-08-30T13:11:11.700Z,157803.19
2022-08-30T13:13:45.257Z,157670.88
2022-08-30T13:16:29.450Z,157782.22
2022-08-30T13:19:29.595Z,157778.28
2022-08-30T13:22:01.786Z,157790.09
2022-08-30T13:24:32.671Z,157832.00
2022-08-30T13:27:11.535Z,157834.66
2022-08-30T13:29:41.813Z,157824.13
2022-08-30T13:32:13.924Z,157841.19
2022-08-30T13:34:47.775Z,157832.00
2022-08-30T13:40:14.768Z,157815.00
2022-08-30T13:42:45.377Z,157767.81
2022-08-30T13:48:10.934Z,157693.13
2022-08-30T13:50:44.038Z,157731.16
2022-08-30T13:53:14.636Z,157572.66
2022-08-30T13:55:46.165Z,157744.22
2022-08-30T13:58:19.836Z,157807.13
2022-08-30T14:00:53.724Z,157834.66
2022-08-30T14:03:24.230Z,157762.56
2022-08-30T14:06:15.865Z,157786.16
2022-08-30T14:08:47.663Z,157765.22
2022-08-30T14:11:20.858Z,157723.28
2022-08-30T14:16:44.752Z,157648.59
2022-08-30T14:19:16.124Z,157673.47
2022-08-30T14:21:49.877Z,157740.34
2022-08-30T14:24:21.387Z,157742.94
2022-08-30T14:26:53.340Z,157760.00
2022-08-30T14:29:26.337Z,157670.88
2022-08-30T14:32:00.547Z,157636.84
2022-08-30T14:34:31.230Z,157618.50
2022-08-30T14:37:07.053Z,157610.66
2022-08-30T14:39:39.460Z,157567.44
2022-08-30T14:42:11.918Z,157594.97
2022-08-30T14:44:56.624Z,157640.78
2022-08-30T14:47:29.750Z,157672.19
2022-08-30T14:50:02.108Z,157577.91
2022-08-30T14:52:35.727Z,157600.19
2022-08-30T14:55:08.964Z,157587.06
2022-08-30T14:57:39.686Z,157592.31
2022-08-30T15:00:12.822Z,157556.91
2022-08-30T15:02:42.975Z,157509.81
2022-08-30T15:05:13.377Z,157554.31
2022-08-30T15:07:47.512Z,157559.56
2022-08-30T15:10:20.240Z,157526.81
2022-08-30T15:12:50.910Z,157541.22
2022-08-30T15:15:25.826Z,157458.72
2022-08-30T15:17:55.993Z,157478.38
2022-08-30T15:20:27.655Z,157490.19
2022-08-30T15:23:00.494Z,157491.47
2022-08-30T15:25:31.099Z,157500.66
2022-08-30T15:28:01.308Z,157414.28
2022-08-30T15:30:31.760Z,157377.56
2022-08-30T15:33:02.302Z,157382.78
2022-08-30T15:35:32.530Z,157395.91
2022-08-30T15:38:06.069Z,157360.56
2022-08-30T15:40:39.154Z,157376.25
2022-08-30T15:43:09.443Z,157371.03
2022-08-30T15:45:39.997Z,157395.91
2022-08-30T15:48:10.440Z,157384.09
2022-08-30T15:50:41.415Z,157338.28
2022-08-30T15:53:14.911Z,157312.13
2022-08-30T15:55:45.075Z,157339.63
2022-08-30T15:58:15.494Z,157284.69
2022-08-30T16:00:47.390Z,157270.28
2022-08-30T16:03:17.834Z,157248.03
2022-08-30T16:05:51.812Z,157212.66
2022-08-30T16:08:25.752Z,157213.94
2022-08-30T16:10:56.417Z,157253.25
2022-08-30T16:13:27.141Z,157245.44
2022-08-30T16:15:57.949Z,157194.38
2022-08-30T16:18:28.201Z,157223.13
2022-08-30T16:21:05.723Z,157215.28
2022-08-30T16:23:40.540Z,157148.56
2022-08-30T16:26:17.272Z,157134.22
2022-08-30T16:28:49.453Z,157134.22
2022-08-30T16:31:21.211Z,157136.78
2022-08-30T16:33:53.116Z,157178.63
2022-08-30T16:36:26.562Z,157113.25
2022-08-30T16:39:01.499Z,157113.25
2022-08-30T16:41:32.756Z,157098.84
2022-08-30T16:44:05.241Z,157066.13
2022-08-30T16:46:36.204Z,157021.66
2022-08-30T16:49:08.897Z,157015.16
2022-08-30T16:51:40.170Z,157004.69
2022-08-30T16:54:14.292Z,157055.69
2022-08-30T16:56:45.725Z,156985.06
2022-08-30T16:59:17.057Z,156927.53
2022-08-30T17:01:48.172Z,156906.63
2022-08-30T17:04:19.768Z,156851.66
2022-08-30T17:06:52.284Z,156821.59
2022-08-30T17:09:25.704Z,156769.28
2022-08-30T17:11:56.426Z,156726.16
2022-08-30T17:14:29.375Z,156677.78
2022-08-30T17:17:00.888Z,156615.09
2022-08-30T17:19:33.171Z,156605.94
2022-08-30T17:22:05.153Z,156555.00
2022-08-30T17:24:41.134Z,156519.66
2022-08-30T17:27:11.807Z,156488.31
2022-08-30T17:29:42.445Z,156468.72
2022-08-30T17:32:12.909Z,156455.69
2022-08-30T17:34:43.304Z,156433.47
2022-08-30T17:37:13.819Z,156421.72
2022-08-30T17:39:47.205Z,156386.47
2022-08-30T17:42:18.051Z,156364.25
2022-08-30T17:44:48.445Z,156347.25
2022-08-30T17:47:19.023Z,156326.38
2022-08-30T17:49:50.333Z,156313.28
2022-08-30T17:52:20.876Z,156292.41
2022-08-30T17:54:53.775Z,156259.75
2022-08-30T17:57:24.201Z,156228.44
2022-08-30T17:59:54.742Z,156242.78
2022-08-30T18:02:29.874Z,156258.47
2022-08-30T18:05:03.576Z,156284.56
2022-08-30T18:07:34.344Z,156318.50
2022-08-30T18:10:10.279Z,156308.06
2022-08-30T18:12:41.028Z,156317.22
2022-08-30T18:15:18.155Z,156328.94
2022-08-30T18:17:49.437Z,156334.16
2022-08-30T18:20:21.360Z,156357.69
2022-08-30T18:22:56.740Z,156309.38
2022-08-30T18:25:31.162Z,156270.25
2022-08-30T18:28:01.874Z,156231.06
2022-08-30T18:30:39.851Z,156211.50
2022-08-30T18:33:11.609Z,156218.00
2022-08-30T18:35:47.500Z,156210.16
2022-08-30T18:38:19.464Z,156189.28
2022-08-30T18:41:02.414Z,156177.53
2022-08-30T18:43:33.398Z,156157.91
2022-08-30T18:46:07.025Z,156137.03
2022-08-30T18:48:40.510Z,156121.38
2022-08-30T18:51:15.040Z,156107.03
2022-08-30T18:53:46.805Z,156097.88
2022-08-30T18:56:20.606Z,156100.47
2022-08-30T18:58:53.191Z,156103.09
2022-08-30T19:01:23.637Z,156088.75
2022-08-30T19:03:54.419Z,156099.16
2022-08-30T19:06:25.099Z,156082.22
2022-08-30T19:08:55.917Z,156083.53
2022-08-30T19:11:29.200Z,156083.53
2022-08-30T19:13:59.922Z,156057.44
2022-08-30T19:16:30.562Z,156037.84
2022-08-30T19:19:01.365Z,156043.06
2022-08-30T19:21:32.082Z,156063.94
2022-08-30T19:24:04.144Z,156073.09
2022-08-30T19:26:38.832Z,156080.94
2022-08-30T19:29:09.761Z,156074.38
2022-08-30T19:31:41.666Z,156041.78
2022-08-30T19:34:12.176Z,156043.06
2022-08-30T19:36:42.706Z,156056.13
2022-08-30T19:39:15.463Z,156028.72
2022-08-30T19:41:51.003Z,156049.59
2022-08-30T19:44:21.801Z,156036.56
2022-08-30T19:46:56.771Z,156001.34
2022-08-30T19:49:27.454Z,156002.63
2022-08-30T19:51:58.075Z,155997.41
2022-08-30T19:54:28.829Z,155980.44
2022-08-30T19:57:02.330Z,155981.78
2022-08-30T19:59:32.741Z,155960.81
2022-08-30T20:02:03.767Z,155945.16
2022-08-30T20:04:34.636Z,155923.00
2022-08-30T20:07:05.202Z,155932.16
2022-08-30T20:09:37.910Z,155915.16
2022-08-30T20:12:12.030Z,155923.00
2022-08-30T20:14:42.735Z,155923.00
2022-08-30T20:17:13.203Z,155921.72
2022-08-30T20:19:43.744Z,155893.00
2022-08-30T20:22:15.227Z,155881.28
2022-08-30T20:24:45.926Z,155852.59
2022-08-30T20:27:19.188Z,155861.72
2022-08-30T20:29:49.545Z,155861.72
2022-08-30T20:32:20.245Z,155872.16
2022-08-30T20:34:51.186Z,155860.38
2022-08-30T20:37:23.345Z,155855.16
2022-08-30T20:39:59.640Z,155836.94
2022-08-30T20:42:33.018Z,155827.81
2022-08-30T20:45:03.246Z,155814.75
2022-08-30T20:47:35.235Z,155804.31
2022-08-30T20:50:10.935Z,155788.66
2022-08-30T20:52:45.100Z,155786.03
2022-08-30T20:55:17.977Z,155787.38
2022-08-30T20:57:51.425Z,155813.44
2022-08-30T21:00:23.200Z,155797.81
2022-08-30T21:02:54.198Z,155774.31
2022-08-30T21:05:24.628Z,155765.19
2022-08-30T21:07:55.347Z,155748.19
2022-08-30T21:10:26.344Z,155731.22
2022-08-30T21:12:59.580Z,155727.34
2022-08-30T21:15:38.408Z,155715.59
2022-08-30T21:18:11.212Z,155690.81
2022-08-30T21:20:41.937Z,155699.94
2022-08-30T21:23:12.683Z,155675.19
2022-08-30T21:25:44.050Z,155679.09
2022-08-30T21:28:17.977Z,155675.19
2022-08-30T21:30:49.534Z,155653.03
2022-08-30T21:33:20.120Z,155649.13
2022-08-30T21:36:02.792Z,155651.69
2022-08-30T21:38:33.236Z,155668.69
2022-08-30T21:41:04.068Z,155649.13
2022-08-30T21:43:37.723Z,155663.47
2022-08-30T21:46:09.723Z,155663.47
2022-08-30T21:48:40.504Z,155667.38
2022-08-30T21:51:12.438Z,155653.03
2022-08-30T21:53:42.988Z,155639.97
2022-08-30T21:56:21.304Z,155641.28
2022-08-30T21:58:55.112Z,155616.50
2022-08-30T22:01:27.052Z,155624.34
2022-08-30T22:04:00.393Z,155632.19
2022-08-30T22:06:32.768Z,155628.28
2022-08-30T22:09:05.026Z,155638.69
2022-08-30T22:11:36.491Z,155602.22
2022-08-30T22:14:10.320Z,155595.66
2022-08-30T22:16:42.931Z,155585.25
2022-08-30T22:19:13.456Z,155578.72
2022-08-30T22:21:45.396Z,155583.94
2022-08-30T22:24:16.617Z,155561.75
2022-08-30T22:26:49.110Z,155550.06
2022-08-30T22:29:23.460Z,155551.34
2022-08-30T22:31:54.437Z,155536.94
2022-08-30T22:34:25.159Z,155518.75
2022-08-30T22:36:55.878Z,155506.97
2022-08-30T22:39:26.289Z,155509.59
2022-08-30T22:41:57.061Z,155508.31
2022-08-30T22:44:30.485Z,155504.41
2022-08-30T22:47:00.607Z,155480.94
2022-08-30T22:49:31.325Z,155486.13
2022-08-30T22:52:01.845Z,155479.63
2022-08-30T22:54:33.407Z,155477.00
2022-08-30T22:57:04.519Z,155466.59
2022-08-30T22:59:38.097Z,155475.72
2022-08-30T23:02:08.332Z,155452.25
2022-08-30T23:04:39.945Z,155440.53
2022-08-30T23:07:10.490Z,155444.47
2022-08-30T23:09:41.017Z,155435.31
2022-08-30T23:12:11.767Z,155404.06
2022-08-30T23:14:45.056Z,155396.25
2022-08-30T23:17:15.685Z,155389.75
2022-08-30T23:19:46.092Z,155372.78
2022-08-30T23:22:16.586Z,155374.13
2022-08-30T23:24:59.090Z,155367.56
2022-08-30T23:27:41.876Z,155348.03
2022-08-30T23:30:28.511Z,155341.53
2022-08-30T23:33:11.530Z,155325.84
2022-08-30T23:35:54.603Z,155332.41
2022-08-30T23:38:37.459Z,155310.22
2022-08-30T23:41:20.192Z,155290.69
2022-08-30T23:44:02.733Z,155290.69
2022-08-30T23:46:48.116Z,155285.47
2022-08-30T23:49:30.811Z,155260.72
2022-08-30T23:52:13.600Z,155233.34
2022-08-30T23:54:57.487Z,155229.50
2022-08-30T23:57:41.613Z,155224.28
